createdAt,value
2023-05-05T00:00:00.702Z,101441.88
2023-05-05T00:02:30.962Z,101434.78
2023-05-05T00:05:00.796Z,101439.03
2023-05-05T00:07:30.637Z,101432.56
2023-05-05T00:10:00.316Z,101431.50
2023-05-05T00:12:30.477Z,101438.09
2023-05-05T00:15:00.483Z,101431.59
2023-05-05T00:17:30.608Z,101429.19
2023-05-05T00:20:00.376Z,101435.97
2023-05-05T00:22:30.466Z,101440.44
2023-05-05T00:25:00.931Z,101435.25
2023-05-05T00:27:30.430Z,101437.00
2023-05-05T00:30:00.128Z,101425.75
2023-05-05T00:32:29.969Z,101425.53
2023-05-05T00:35:00.543Z,101428.22
2023-05-05T00:37:33.097Z,101427.16
2023-05-05T00:40:02.627Z,101414.84
2023-05-05T00:42:52.544Z,101425.91
2023-05-05T00:45:22.759Z,101408.69
2023-05-05T00:48:01.954Z,101412.38
2023-05-05T00:50:32.384Z,101409.50
2023-05-05T00:53:06.782Z,101402.38
2023-05-05T00:55:37.372Z,101406.34
2023-05-05T00:58:08.286Z,101404.72
2023-05-05T01:00:38.429Z,101405.53
2023-05-05T01:03:08.730Z,101405.31
2023-05-05T01:07:01.206Z,101408.16
2023-05-05T01:10:19.662Z,101398.00
2023-05-05T01:13:40.705Z,101400.00
2023-05-05T01:17:04.569Z,101399.63
2023-05-05T01:21:09.102Z,101400.78
2023-05-05T01:24:18.602Z,101398.63
2023-05-05T01:27:27.889Z,101400.25
2023-05-05T01:30:44.975Z,101400.88
2023-05-05T01:33:26.498Z,101391.44
2023-05-05T01:36:10.619Z,101393.78
2023-05-05T01:38:47.416Z,101389.09
2023-05-05T01:41:22.327Z,101398.03
2023-05-05T01:43:58.671Z,101396.69
2023-05-05T01:46:31.209Z,101392.00
2023-05-05T01:49:02.252Z,101395.91
2023-05-05T01:51:36.745Z,101401.44
2023-05-05T01:54:10.557Z,101393.69
2023-05-05T01:56:44.697Z,101394.78
2023-05-05T01:59:17.974Z,101388.44
2023-05-05T02:01:52.291Z,101392.38
2023-05-05T02:04:26.944Z,101399.59
2023-05-05T02:07:01.013Z,101393.59
2023-05-05T02:09:31.691Z,101385.94
2023-05-05T02:12:04.051Z,101389.28
2023-05-05T02:14:37.157Z,101386.56
2023-05-05T02:17:09.877Z,101383.53
2023-05-05T02:19:47.855Z,101385.03
2023-05-05T02:22:18.225Z,101384.22
2023-05-05T02:24:48.340Z,101390.63
2023-05-05T02:27:24.496Z,101383.50
2023-05-05T02:30:08.694Z,101389.06
2023-05-05T02:32:48.104Z,101391.25
2023-05-05T02:35:28.848Z,101399.81
2023-05-05T02:38:06.339Z,101388.53
2023-05-05T02:40:43.735Z,101393.28
2023-05-05T02:43:23.328Z,101390.78
2023-05-05T02:45:53.748Z,101380.34
2023-05-05T02:48:24.401Z,101383.63
2023-05-05T02:50:54.518Z,101389.38
2023-05-05T02:53:29.070Z,101393.56
2023-05-05T02:56:26.769Z,101400.22
2023-05-05T02:59:16.434Z,101394.22
2023-05-05T03:02:23.253Z,101390.38
2023-05-05T03:05:13.516Z,101384.06
2023-05-05T03:08:10.996Z,101386.88
2023-05-05T03:11:04.432Z,101389.63
2023-05-05T03:13:37.966Z,101380.16
2023-05-05T03:16:11.816Z,101388.19
2023-05-05T03:18:47.169Z,101381.00
2023-05-05T03:21:19.110Z,101378.31
2023-05-05T03:23:49.665Z,101384.38
2023-05-05T03:26:19.880Z,101377.50
2023-05-05T03:28:49.975Z,101382.13
2023-05-05T03:31:20.207Z,101383.44
2023-05-05T03:33:50.374Z,101385.13
2023-05-05T03:36:20.458Z,101382.34
2023-05-05T03:38:50.773Z,101385.38
2023-05-05T03:41:23.828Z,101387.88
2023-05-05T03:43:54.639Z,101384.59
2023-05-05T03:46:24.725Z,101392.66
2023-05-05T03:48:57.286Z,101388.81
2023-05-05T03:51:28.255Z,101387.41
2023-05-05T03:53:58.467Z,101380.53
2023-05-05T03:56:28.614Z,101392.13
2023-05-05T03:58:58.817Z,101390.75
2023-05-05T04:01:30.139Z,101378.03
2023-05-05T04:04:00.264Z,101373.34
2023-05-05T04:06:31.993Z,101385.19
2023-05-05T04:09:02.247Z,101381.56
2023-05-05T04:11:32.480Z,101384.25
2023-05-05T04:14:02.701Z,101382.63
2023-05-05T04:16:33.031Z,101380.63
2023-05-05T04:19:04.126Z,101373.94
2023-05-05T04:21:35.428Z,101372.97
2023-05-05T04:24:06.343Z,101383.75
2023-05-05T04:26:36.616Z,101381.81
2023-05-05T04:29:06.954Z,101385.09
2023-05-05T04:31:37.108Z,101390.53
2023-05-05T04:34:07.231Z,101388.44
2023-05-05T04:36:37.824Z,101388.72
2023-05-05T04:39:08.826Z,101392.44
2023-05-05T04:41:38.918Z,101396.78
2023-05-05T04:44:07.384Z,101402.69
2023-05-05T04:46:35.815Z,101400.88
2023-05-05T04:49:05.928Z,101402.75
2023-05-05T04:51:35.660Z,101412.06
2023-05-05T04:54:04.237Z,101412.19
2023-05-05T04:56:32.591Z,101413.63
2023-05-05T04:59:00.893Z,101411.88
2023-05-05T05:01:29.361Z,101407.47
2023-05-05T05:03:57.934Z,101412.00
2023-05-05T05:06:26.148Z,101421.09
2023-05-05T05:08:54.533Z,101417.00
2023-05-05T05:11:23.118Z,101416.03
2023-05-05T05:13:51.359Z,101417.75
2023-05-05T05:16:19.908Z,101421.84
2023-05-05T05:18:48.302Z,101419.38
2023-05-05T05:21:16.822Z,101422.03
2023-05-05T05:23:45.042Z,101408.78
2023-05-05T05:26:13.554Z,101416.06
2023-05-05T05:28:41.915Z,101425.53
2023-05-05T05:31:10.243Z,101428.66
2023-05-05T05:33:38.658Z,101425.47
2023-05-05T05:36:07.245Z,101421.78
2023-05-05T05:38:35.621Z,101415.34
2023-05-05T05:41:07.862Z,101420.72
2023-05-05T05:43:37.914Z,101428.50
2023-05-05T05:46:09.186Z,101418.13
2023-05-05T05:48:39.587Z,101422.88
2023-05-05T05:51:09.556Z,101422.75
2023-05-05T05:53:39.286Z,101420.41
2023-05-05T05:56:10.021Z,101425.97
2023-05-05T05:58:40.728Z,101429.03
2023-05-05T06:01:11.050Z,101421.94
2023-05-05T06:03:41.126Z,101416.31
2023-05-05T06:06:11.178Z,101415.50
2023-05-05T06:08:40.860Z,101421.81
2023-05-05T06:11:10.833Z,101425.03
2023-05-05T06:13:40.525Z,101420.94
2023-05-05T06:16:10.476Z,101424.53
2023-05-05T06:18:40.261Z,101427.19
2023-05-05T06:21:10.029Z,101429.84
2023-05-05T06:23:40.023Z,101419.44
2023-05-05T06:26:09.670Z,101428.00
2023-05-05T06:28:39.583Z,101430.41
2023-05-05T06:31:09.779Z,101425.84
2023-05-05T06:33:39.511Z,101425.47
2023-05-05T06:36:09.551Z,101435.03
2023-05-05T06:38:39.663Z,101433.91
2023-05-05T06:41:09.444Z,101440.31
2023-05-05T06:43:39.842Z,101429.34
2023-05-05T06:46:09.633Z,101436.88
2023-05-05T06:48:39.646Z,101430.31
2023-05-05T06:51:10.424Z,101437.22
2023-05-05T06:53:40.214Z,101433.09
2023-05-05T06:56:10.037Z,101431.25
2023-05-05T06:58:39.781Z,101430.75
2023-05-05T07:01:09.881Z,101439.94
2023-05-05T07:03:40.025Z,101439.78
2023-05-05T07:06:09.888Z,101440.97
2023-05-05T07:08:38.220Z,101431.25
2023-05-05T07:11:07.239Z,101436.69
2023-05-05T07:13:35.092Z,101437.59
2023-05-05T07:16:03.699Z,101442.19
2023-05-05T07:18:31.902Z,101445.13
2023-05-05T07:21:01.480Z,101449.50
2023-05-05T07:23:28.720Z,101444.69
2023-05-05T07:25:57.390Z,101449.66
2023-05-05T07:28:25.622Z,101449.22
2023-05-05T07:30:54.255Z,101448.81
2023-05-05T07:33:22.751Z,101450.81
2023-05-05T07:35:50.880Z,101451.16
2023-05-05T07:38:19.310Z,101449.31
2023-05-05T07:40:47.680Z,101454.44
2023-05-05T07:43:16.166Z,101453.28
2023-05-05T07:45:44.587Z,101460.16
2023-05-05T07:48:12.958Z,101459.41
2023-05-05T07:50:41.378Z,101457.56
2023-05-05T07:53:14.226Z,101462.09
2023-05-05T07:55:45.260Z,101458.78
2023-05-05T07:58:15.005Z,101454.41
2023-05-05T08:00:44.796Z,101455.50
2023-05-05T08:03:14.694Z,101448.88
2023-05-05T08:05:44.643Z,101448.06
2023-05-05T08:08:14.506Z,101447.25
2023-05-05T08:10:44.241Z,101452.13
2023-05-05T08:13:14.053Z,101456.09
2023-05-05T08:15:45.290Z,101447.59
2023-05-05T08:18:15.606Z,101442.53
2023-05-05T08:20:45.621Z,101448.44
2023-05-05T08:23:15.615Z,101445.59
2023-05-05T08:25:45.653Z,101448.63
2023-05-05T08:28:15.434Z,101448.47
2023-05-05T08:30:45.418Z,101449.53
2023-05-05T08:33:15.762Z,101443.25
2023-05-05T08:35:45.152Z,101444.34
2023-05-05T08:38:15.448Z,101441.50
2023-05-05T08:40:45.819Z,101433.19
2023-05-05T08:43:16.114Z,101438.72
2023-05-05T08:45:47.218Z,101427.59
2023-05-05T08:48:23.150Z,101428.09
2023-05-05T08:51:01.930Z,101425.28
2023-05-05T08:53:58.954Z,101417.66
2023-05-05T08:56:34.518Z,101431.28
2023-05-05T08:59:05.351Z,101440.06
2023-05-05T09:01:36.877Z,101442.38
2023-05-05T09:04:09.836Z,101445.13
2023-05-05T09:06:40.619Z,101439.56
2023-05-05T09:09:12.120Z,101439.53
2023-05-05T09:11:45.171Z,101441.75
2023-05-05T09:14:15.303Z,101445.47
2023-05-05T09:16:45.755Z,101440.72
2023-05-05T09:19:15.855Z,101438.34
2023-05-05T09:21:49.827Z,101447.91
2023-05-05T09:24:20.416Z,101435.59
2023-05-05T09:26:50.749Z,101433.63
2023-05-05T09:29:22.519Z,101427.88
2023-05-05T09:32:08.887Z,101431.88
2023-05-05T09:34:38.246Z,101430.56
2023-05-05T09:37:07.883Z,101426.50
2023-05-05T09:39:36.338Z,101429.72
2023-05-05T09:42:05.499Z,101430.63
2023-05-05T09:44:40.208Z,101424.31
2023-05-05T09:47:21.946Z,101429.19
2023-05-05T09:49:59.286Z,101433.50
2023-05-05T09:52:30.631Z,101430.38
2023-05-05T09:55:00.558Z,101415.28
2023-05-05T09:57:34.335Z,101426.09
2023-05-05T10:00:06.558Z,101416.84
2023-05-05T10:02:39.606Z,101433.03
2023-05-05T10:05:18.009Z,101427.16
2023-05-05T10:07:48.360Z,101425.66
2023-05-05T10:10:19.356Z,101427.91
2023-05-05T10:12:51.392Z,101428.78
2023-05-05T10:15:23.060Z,101424.53
2023-05-05T10:18:07.003Z,101420.47
2023-05-05T10:20:42.119Z,101411.22
2023-05-05T10:23:20.655Z,101409.63
2023-05-05T10:26:04.992Z,101407.50
2023-05-05T10:28:51.141Z,101411.03
2023-05-05T10:31:49.276Z,101409.34
2023-05-05T10:34:51.527Z,101404.19
2023-05-05T10:37:23.288Z,101403.34
2023-05-05T10:39:57.933Z,101396.34
2023-05-05T10:42:28.263Z,101395.53
2023-05-05T10:44:58.367Z,101397.63
2023-05-05T10:47:29.507Z,101401.84
2023-05-05T10:50:29.691Z,101388.75
2023-05-05T10:53:24.240Z,101405.84
2023-05-05T10:56:22.123Z,101378.03
2023-05-05T10:58:59.617Z,101384.75
2023-05-05T11:01:36.560Z,101386.63
2023-05-05T11:04:23.299Z,101380.09
2023-05-05T11:07:11.072Z,101364.66
2023-05-05T11:10:03.661Z,101375.66
2023-05-05T11:12:59.399Z,101370.34
2023-05-05T11:15:29.665Z,101360.47
2023-05-05T11:18:07.310Z,101370.66
2023-05-05T11:20:41.003Z,101367.72
2023-05-05T11:25:47.305Z,101357.53
2023-05-05T11:28:31.231Z,101362.88
2023-05-05T11:31:01.378Z,101361.69
2023-05-05T11:33:38.760Z,101350.03
2023-05-05T11:36:15.857Z,101351.75
2023-05-05T11:40:03.249Z,101341.44
2023-05-05T11:42:34.043Z,101340.44
2023-05-05T11:45:23.561Z,101336.25
2023-05-05T11:48:28.651Z,101326.41
2023-05-05T11:51:02.466Z,101317.19
2023-05-05T11:53:32.457Z,101326.53
2023-05-05T11:56:11.195Z,101316.13
2023-05-05T11:58:41.760Z,101316.84
2023-05-05T12:01:13.445Z,101313.75
2023-05-05T12:03:45.965Z,101299.63
2023-05-05T12:06:16.155Z,101307.44
2023-05-05T12:08:45.913Z,101301.66
2023-05-05T12:11:16.200Z,101307.09
2023-05-05T12:13:46.539Z,101300.38
2023-05-05T12:16:16.862Z,101299.44
2023-05-05T12:18:47.045Z,101306.78
2023-05-05T12:21:19.988Z,101298.88
2023-05-05T12:23:50.463Z,101291.38
2023-05-05T12:26:32.095Z,101284.41
2023-05-05T12:29:01.745Z,101295.47
2023-05-05T12:31:42.378Z,101291.09
2023-05-05T12:34:13.405Z,101295.41
2023-05-05T12:36:43.141Z,101298.31
2023-05-05T12:39:13.617Z,101287.25
2023-05-05T12:41:43.718Z,101292.28
2023-05-05T12:44:13.883Z,101286.28
2023-05-05T12:46:49.471Z,101287.09
2023-05-05T12:49:19.585Z,101288.47
2023-05-05T12:51:57.359Z,101270.81
2023-05-05T12:54:25.382Z,101275.28
2023-05-05T12:57:00.035Z,101281.72
2023-05-05T12:59:30.926Z,101275.75
2023-05-05T13:02:01.842Z,101277.31
2023-05-05T13:04:32.796Z,101275.25
2023-05-05T13:07:16.497Z,101258.88
2023-05-05T13:09:47.357Z,101264.19
2023-05-05T13:12:22.138Z,101271.16
2023-05-05T13:14:53.848Z,101251.31
2023-05-05T13:17:23.925Z,101259.88
2023-05-05T13:19:54.271Z,101254.50
2023-05-05T13:22:24.439Z,101248.59
2023-05-05T13:24:54.653Z,101257.88
2023-05-05T13:27:23.090Z,101250.97
2023-05-05T13:29:53.133Z,101246.81
2023-05-05T13:32:23.455Z,101242.38
2023-05-05T13:34:53.271Z,101237.06
2023-05-05T13:37:23.150Z,101238.38
2023-05-05T13:39:53.130Z,101226.34
2023-05-05T13:42:22.856Z,101229.06
2023-05-05T13:44:52.681Z,101229.53
2023-05-05T13:47:22.506Z,101231.03
2023-05-05T13:49:52.724Z,101232.13
2023-05-05T13:52:22.436Z,101212.06
2023-05-05T13:54:52.209Z,101219.84
2023-05-05T13:57:22.192Z,101209.38
2023-05-05T13:59:52.145Z,101217.91
2023-05-05T14:02:21.581Z,101207.34
2023-05-05T14:04:51.235Z,101205.31
2023-05-05T14:07:21.582Z,101211.38
2023-05-05T14:09:51.650Z,101202.03
2023-05-05T14:12:21.558Z,101199.97
2023-05-05T14:14:51.282Z,101199.56
2023-05-05T14:17:21.014Z,101187.56
2023-05-05T14:19:51.187Z,101184.31
2023-05-05T14:22:21.434Z,101193.16
2023-05-05T14:24:51.083Z,101183.13
2023-05-05T14:27:20.922Z,101173.38
2023-05-05T14:29:50.633Z,101175.34
2023-05-05T14:32:20.345Z,101174.56
2023-05-05T14:34:50.584Z,101172.50
2023-05-05T14:37:21.038Z,101175.66
2023-05-05T14:39:50.458Z,101174.91
2023-05-05T14:42:20.252Z,101174.00
2023-05-05T14:44:50.032Z,101167.97
2023-05-05T14:47:20.008Z,101170.47
2023-05-05T14:49:49.803Z,101166.66
2023-05-05T14:52:19.567Z,101170.19
2023-05-05T14:54:49.230Z,101171.13
2023-05-05T14:57:19.083Z,101172.34
2023-05-05T14:59:51.963Z,101170.16
2023-05-05T15:02:21.865Z,101174.66
2023-05-05T15:04:53.111Z,101166.91
2023-05-05T15:07:28.430Z,101169.44
2023-05-05T15:09:58.570Z,101173.06
2023-05-05T15:12:28.358Z,101168.44
2023-05-05T15:14:58.170Z,101159.44
2023-05-05T15:17:28.744Z,101154.75
2023-05-05T15:19:58.159Z,101153.06
2023-05-05T15:22:27.884Z,101158.44
2023-05-05T15:24:57.586Z,101152.47
2023-05-05T15:27:27.699Z,101155.34
2023-05-05T15:29:57.869Z,101144.56
2023-05-05T15:32:28.405Z,101143.31
2023-05-05T15:34:58.631Z,101147.38
2023-05-05T15:37:29.093Z,101136.16
2023-05-05T15:39:59.276Z,101137.25
2023-05-05T15:42:31.813Z,101140.72
2023-05-05T15:45:01.704Z,101131.88
2023-05-05T15:47:31.250Z,101136.28
2023-05-05T15:50:01.086Z,101132.31
2023-05-05T15:52:31.320Z,101138.88
2023-05-05T15:55:01.961Z,101143.84
2023-05-05T15:57:33.357Z,101132.31
2023-05-05T16:00:02.288Z,101131.75
2023-05-05T16:02:32.393Z,101140.66
2023-05-05T16:05:02.527Z,101133.97
2023-05-05T16:07:32.275Z,101133.19
2023-05-05T16:10:02.790Z,101127.44
2023-05-05T16:12:32.302Z,101140.28
2023-05-05T16:15:02.222Z,101126.25
2023-05-05T16:17:32.055Z,101120.47
2023-05-05T16:20:01.969Z,101133.38
2023-05-05T16:22:31.987Z,101119.72
2023-05-05T16:25:00.440Z,101127.59
2023-05-05T16:27:28.990Z,101132.00
2023-05-05T16:29:59.551Z,101136.16
2023-05-05T16:32:28.709Z,101131.22
2023-05-05T16:34:57.246Z,101132.03
2023-05-05T16:37:25.574Z,101131.03
2023-05-05T16:39:53.888Z,101119.09
2023-05-05T16:42:22.825Z,101116.31
2023-05-05T16:44:50.760Z,101128.84
2023-05-05T16:47:19.182Z,101122.84
2023-05-05T16:49:47.534Z,101128.91
2023-05-05T16:52:16.081Z,101125.31
2023-05-05T16:54:44.629Z,101129.63
2023-05-05T16:57:13.788Z,101127.78
2023-05-05T16:59:41.916Z,101126.22
2023-05-05T17:02:09.848Z,101128.69
2023-05-05T17:04:38.078Z,101122.94
2023-05-05T17:07:06.572Z,101122.94
2023-05-05T17:09:34.994Z,101121.47
2023-05-05T17:12:05.573Z,101119.56
2023-05-05T17:14:36.048Z,101120.44
2023-05-05T17:17:06.228Z,101122.41
2023-05-05T17:19:35.975Z,101119.69
2023-05-05T17:22:05.731Z,101120.53
2023-05-05T17:24:35.760Z,101119.25
2023-05-05T17:27:05.267Z,101119.09
2023-05-05T17:29:40.660Z,101120.44
2023-05-05T17:32:10.099Z,101115.47
2023-05-05T17:34:38.623Z,101119.69
2023-05-05T17:37:07.043Z,101112.22
2023-05-05T17:39:35.672Z,101120.03
2023-05-05T17:42:04.134Z,101115.69
2023-05-05T17:44:32.836Z,101120.31
2023-05-05T17:47:02.980Z,101126.09
2023-05-05T17:49:32.682Z,101121.78
2023-05-05T17:52:01.371Z,101120.25
2023-05-05T17:54:30.007Z,101117.84
2023-05-05T17:56:59.773Z,101110.50
2023-05-05T17:59:27.615Z,101120.34
2023-05-05T18:01:56.302Z,101118.81
2023-05-05T18:04:25.563Z,101117.25
2023-05-05T18:06:57.653Z,101110.56
2023-05-05T18:09:27.803Z,101111.25
2023-05-05T18:11:57.868Z,101111.66
2023-05-05T18:14:28.037Z,101116.34
2023-05-05T18:16:57.784Z,101116.50
2023-05-05T18:19:27.649Z,101112.78
2023-05-05T18:22:00.584Z,101114.22
2023-05-05T18:24:30.249Z,101122.66
2023-05-05T18:27:00.063Z,101115.06
2023-05-05T18:29:29.877Z,101109.72
2023-05-05T18:31:59.809Z,101105.31
2023-05-05T18:34:29.751Z,101121.25
2023-05-05T18:37:00.650Z,101116.00
2023-05-05T18:39:30.581Z,101125.78
2023-05-05T18:42:00.973Z,101133.72
2023-05-05T18:44:32.837Z,101130.94
2023-05-05T18:47:03.150Z,101123.13
2023-05-05T18:49:33.699Z,101130.72
2023-05-05T18:52:03.219Z,101141.66
2023-05-05T18:54:33.680Z,101138.66
2023-05-05T18:57:03.605Z,101155.31
2023-05-05T18:59:33.761Z,101145.44
2023-05-05T19:02:03.589Z,101165.13
2023-05-05T19:04:37.547Z,101167.69
2023-05-05T19:07:07.710Z,101168.97
2023-05-05T19:09:36.254Z,101162.44
2023-05-05T19:12:04.700Z,101156.13
2023-05-05T19:14:32.095Z,101158.94
2023-05-05T19:17:01.646Z,101163.47
2023-05-05T19:19:28.944Z,101150.06
2023-05-05T19:21:58.260Z,101158.66
2023-05-05T19:24:25.797Z,101152.25
2023-05-05T19:26:54.257Z,101155.47
2023-05-05T19:29:22.640Z,101160.94
2023-05-05T19:31:51.064Z,101165.72
2023-05-05T19:34:19.455Z,101188.97
2023-05-05T19:36:47.852Z,101178.56
2023-05-05T19:39:16.299Z,101181.28
2023-05-05T19:41:44.940Z,101185.28
2023-05-05T19:44:13.153Z,101183.94
2023-05-05T19:46:41.625Z,101178.03
2023-05-05T19:49:10.050Z,101188.56
2023-05-05T19:51:38.337Z,101175.88
2023-05-05T19:54:06.759Z,101173.78
2023-05-05T19:56:35.304Z,101173.78
2023-05-05T19:59:06.437Z,101177.31
2023-05-05T20:01:35.662Z,101174.41
2023-05-05T20:04:03.897Z,101167.72
2023-05-05T20:06:32.981Z,101176.56
2023-05-05T20:09:00.760Z,101172.44
2023-05-05T20:11:29.534Z,101177.59
2023-05-05T20:13:58.569Z,101172.28
2023-05-05T20:16:28.681Z,101177.94
2023-05-05T20:18:58.832Z,101177.31
2023-05-05T20:21:29.224Z,101179.44
2023-05-05T20:23:59.847Z,101195.31
2023-05-05T20:26:29.977Z,101188.44
2023-05-05T20:29:00.125Z,101182.00
2023-05-05T20:31:30.400Z,101173.16
2023-05-05T20:34:01.301Z,101175.44
2023-05-05T20:36:31.468Z,101175.00
2023-05-05T20:39:01.561Z,101172.41
2023-05-05T20:41:31.792Z,101177.22
2023-05-05T20:44:02.170Z,101168.94
2023-05-05T20:46:33.561Z,101167.94
2023-05-05T20:49:04.129Z,101171.06
2023-05-05T20:51:35.263Z,101177.75
2023-05-05T20:54:05.757Z,101186.03
2023-05-05T20:56:35.847Z,101187.66
2023-05-05T20:59:06.232Z,101189.47
2023-05-05T21:01:36.442Z,101183.91
2023-05-05T21:04:06.642Z,101181.31
2023-05-05T21:06:36.739Z,101174.66
2023-05-05T21:09:06.870Z,101172.38
2023-05-05T21:11:37.509Z,101170.19
2023-05-05T21:14:07.633Z,101173.34
2023-05-05T21:16:38.358Z,101161.91
2023-05-05T21:19:08.813Z,101164.75
2023-05-05T21:21:38.934Z,101160.34
2023-05-05T21:24:09.836Z,101160.66
2023-05-05T21:26:37.551Z,101162.81
2023-05-05T21:29:06.602Z,101154.41
2023-05-05T21:31:34.363Z,101155.47
2023-05-05T21:34:03.004Z,101155.81
2023-05-05T21:36:32.012Z,101146.16
2023-05-05T21:39:00.519Z,101153.84
2023-05-05T21:41:28.367Z,101160.88
2023-05-05T21:43:56.462Z,101160.72
2023-05-05T21:46:24.953Z,101162.63
2023-05-05T21:48:53.270Z,101161.22
2023-05-05T21:51:23.604Z,101169.84
2023-05-05T21:53:53.113Z,101165.47
2023-05-05T21:56:21.582Z,101153.97
2023-05-05T21:58:49.899Z,101160.19
2023-05-05T22:01:18.421Z,101186.66
2023-05-05T22:03:47.793Z,101179.75
2023-05-05T22:06:20.552Z,101191.66
2023-05-05T22:08:51.429Z,101203.97
2023-05-05T22:11:21.565Z,101206.72
2023-05-05T22:13:52.086Z,101196.47
2023-05-05T22:16:22.207Z,101197.44
2023-05-05T22:18:52.597Z,101192.28
2023-05-05T22:21:22.764Z,101189.19
2023-05-05T22:23:52.959Z,101191.91
2023-05-05T22:26:23.082Z,101187.78
2023-05-05T22:28:53.190Z,101186.63
2023-05-05T22:31:23.351Z,101189.91
2023-05-05T22:33:53.469Z,101202.19
2023-05-05T22:36:23.648Z,101201.19
2023-05-05T22:38:53.819Z,101196.84
2023-05-05T22:41:22.279Z,101195.91
2023-05-05T22:43:51.022Z,101191.50
2023-05-05T22:46:19.127Z,101183.44
2023-05-05T22:48:47.561Z,101183.06
2023-05-05T22:51:16.560Z,101190.44
2023-05-05T22:53:44.567Z,101181.66
2023-05-05T22:56:12.844Z,101175.06
2023-05-05T22:58:41.409Z,101164.38
2023-05-05T23:01:10.023Z,101167.38
2023-05-05T23:03:38.269Z,101162.00
2023-05-05T23:06:07.312Z,101156.00
2023-05-05T23:08:35.512Z,101155.75
2023-05-05T23:11:03.901Z,101147.88
2023-05-05T23:13:32.277Z,101150.88
2023-05-05T23:16:00.736Z,101158.69
2023-05-05T23:18:29.192Z,101158.09
2023-05-05T23:20:57.683Z,101167.75
2023-05-05T23:23:26.087Z,101159.34
2023-05-05T23:25:54.602Z,101158.25
2023-05-05T23:28:23.049Z,101151.38
2023-05-05T23:30:51.437Z,101162.38
2023-05-05T23:33:19.898Z,101158.81
2023-05-05T23:35:48.610Z,101165.28
2023-05-05T23:38:16.701Z,101163.09
2023-05-05T23:40:45.382Z,101165.78
2023-05-05T23:43:13.783Z,101168.75
2023-05-05T23:45:42.354Z,101168.97
2023-05-05T23:48:13.022Z,101164.88
2023-05-05T23:50:42.491Z,101162.72
2023-05-05T23:53:10.598Z,101151.81
2023-05-05T23:55:38.969Z,101153.88
2023-05-05T23:58:07.452Z,101163.13
